sensor_id;sensor_type;location;lat;lon;timestamp;temperature;humidity
24522;DHT22;12680;57.804;12.190;2022-12-18T00:01:19;3.40;99.90
24522;DHT22;12680;57.804;12.190;2022-12-18T00:03:46;3.40;99.90
24522;DHT22;12680;57.804;12.190;2022-12-18T00:06:14;3.40;99.90
24522;DHT22;12680;57.804;12.190;2022-12-18T00:08:42;3.40;99.90
24522;DHT22;12680;57.804;12.190;2022-12-18T00:11:10;3.40;99.90
24522;DHT22;12680;57.804;12.190;2022-12-18T00:13:38;3.30;99.90
24522;DHT22;12680;57.804;12.190;2022-12-18T00:16:07;3.30;99.90
24522;DHT22;12680;57.804;12.190;2022-12-18T00:18:35;3.30;99.90
24522;DHT22;12680;57.804;12.190;2022-12-18T00:21:04;3.30;99.90
24522;DHT22;12680;57.804;12.190;2022-12-18T00:23:31;3.30;99.90
24522;DHT22;12680;57.804;12.190;2022-12-18T00:25:59;3.20;99.90
24522;DHT22;12680;57.804;12.190;2022-12-18T00:28:26;3.20;99.90
24522;DHT22;12680;57.804;12.190;2022-12-18T00:31:01;3.20;99.90
24522;DHT22;12680;57.804;12.190;2022-12-18T00:33:29;3.20;99.90
24522;DHT22;12680;57.804;12.190;2022-12-18T00:38:46;3.20;99.90
24522;DHT22;12680;57.804;12.190;2022-12-18T00:41:14;3.10;99.90
24522;DHT22;12680;57.804;12.190;2022-12-18T00:44:01;3.10;99.90
24522;DHT22;12680;57.804;12.190;2022-12-18T00:46:29;3.10;99.90
24522;DHT22;12680;57.804;12.190;2022-12-18T00:48:56;3.10;99.90
24522;DHT22;12680;57.804;12.190;2022-12-18T00:51:23;3.00;99.90
24522;DHT22;12680;57.804;12.190;2022-12-18T00:53:50;3.00;99.90
24522;DHT22;12680;57.804;12.190;2022-12-18T00:56:17;3.00;99.90
24522;DHT22;12680;57.804;12.190;2022-12-18T00:58:50;3.00;99.90
24522;DHT22;12680;57.804;12.190;2022-12-18T01:01:17;3.00;99.90
24522;DHT22;12680;57.804;12.190;2022-12-18T01:03:45;3.00;99.90
24522;DHT22;12680;57.804;12.190;2022-12-18T01:06:14;3.00;99.90
24522;DHT22;12680;57.804;12.190;2022-12-18T01:08:41;3.10;99.90
24522;DHT22;12680;57.804;12.190;2022-12-18T01:11:08;3.10;99.90
24522;DHT22;12680;57.804;12.190;2022-12-18T01:13:36;3.10;99.90
24522;DHT22;12680;57.804;12.190;2022-12-18T01:16:03;3.10;99.90
24522;DHT22;12680;57.804;12.190;2022-12-18T01:18:30;3.10;99.90
24522;DHT22;12680;57.804;12.190;2022-12-18T01:20:57;3.10;99.90
24522;DHT22;12680;57.804;12.190;2022-12-18T01:23:25;3.10;99.90
24522;DHT22;12680;57.804;12.190;2022-12-18T01:25:54;3.10;99.90
24522;DHT22;12680;57.804;12.190;2022-12-18T01:28:22;3.10;99.90
24522;DHT22;12680;57.804;12.190;2022-12-18T01:30:48;3.00;99.90
24522;DHT22;12680;57.804;12.190;2022-12-18T01:33:15;3.00;99.90
24522;DHT22;12680;57.804;12.190;2022-12-18T01:35:43;3.00;99.90
24522;DHT22;12680;57.804;12.190;2022-12-18T01:38:10;3.10;99.90
24522;DHT22;12680;57.804;12.190;2022-12-18T01:40:37;3.00;99.90
24522;DHT22;12680;57.804;12.190;2022-12-18T01:43:04;3.00;99.90
24522;DHT22;12680;57.804;12.190;2022-12-18T01:45:31;3.00;99.90
24522;DHT22;12680;57.804;12.190;2022-12-18T01:47:59;3.00;99.90
24522;DHT22;12680;57.804;12.190;2022-12-18T01:50:31;3.00;99.90
24522;DHT22;12680;57.804;12.190;2022-12-18T01:53:06;3.00;99.90
24522;DHT22;12680;57.804;12.190;2022-12-18T01:55:39;3.00;99.90
24522;DHT22;12680;57.804;12.190;2022-12-18T01:58:07;3.00;99.90
24522;DHT22;12680;57.804;12.190;2022-12-18T02:00:34;2.90;99.90
24522;DHT22;12680;57.804;12.190;2022-12-18T02:03:01;2.90;99.90
24522;DHT22;12680;57.804;12.190;2022-12-18T02:08:13;3.00;99.90
24522;DHT22;12680;57.804;12.190;2022-12-18T02:10:51;3.00;99.90
24522;DHT22;12680;57.804;12.190;2022-12-18T02:13:32;3.00;99.90
24522;DHT22;12680;57.804;12.190;2022-12-18T02:18:38;3.00;99.90
24522;DHT22;12680;57.804;12.190;2022-12-18T02:23:38;3.00;99.90
24522;DHT22;12680;57.804;12.190;2022-12-18T02:26:11;3.00;99.90
24522;DHT22;12680;57.804;12.190;2022-12-18T02:28:48;3.00;99.90
24522;DHT22;12680;57.804;12.190;2022-12-18T02:31:17;3.00;99.90
24522;DHT22;12680;57.804;12.190;2022-12-18T02:33:53;3.00;99.90
24522;DHT22;12680;57.804;12.190;2022-12-18T02:36:24;3.00;99.90
24522;DHT22;12680;57.804;12.190;2022-12-18T02:38:56;3.00;99.90
24522;DHT22;12680;57.804;12.190;2022-12-18T02:41:27;3.00;99.90
24522;DHT22;12680;57.804;12.190;2022-12-18T02:43:58;3.00;99.90
24522;DHT22;12680;57.804;12.190;2022-12-18T02:46:31;3.00;99.90
24522;DHT22;12680;57.804;12.190;2022-12-18T02:49:46;3.00;99.90
24522;DHT22;12680;57.804;12.190;2022-12-18T02:54:20;3.00;99.90
24522;DHT22;12680;57.804;12.190;2022-12-18T02:56:51;3.00;99.90
24522;DHT22;12680;57.804;12.190;2022-12-18T02:59:24;3.00;99.90
24522;DHT22;12680;57.804;12.190;2022-12-18T03:01:56;3.00;99.90
24522;DHT22;12680;57.804;12.190;2022-12-18T03:07:01;3.00;99.90
24522;DHT22;12680;57.804;12.190;2022-12-18T03:09:40;3.10;99.90
24522;DHT22;12680;57.804;12.190;2022-12-18T03:12:19;3.10;99.90
24522;DHT22;12680;57.804;12.190;2022-12-18T03:14:52;3.10;99.90
24522;DHT22;12680;57.804;12.190;2022-12-18T03:17:22;3.10;99.90
24522;DHT22;12680;57.804;12.190;2022-12-18T03:19:49;3.20;99.90
24522;DHT22;12680;57.804;12.190;2022-12-18T03:22:18;3.20;99.90
24522;DHT22;12680;57.804;12.190;2022-12-18T03:24:46;3.20;99.90
24522;DHT22;12680;57.804;12.190;2022-12-18T03:27:14;3.30;99.90
24522;DHT22;12680;57.804;12.190;2022-12-18T03:29:45;3.30;99.90
24522;DHT22;12680;57.804;12.190;2022-12-18T03:32:33;3.40;99.90
24522;DHT22;12680;57.804;12.190;2022-12-18T03:35:03;3.40;99.90
24522;DHT22;12680;57.804;12.190;2022-12-18T03:37:32;3.40;99.90
24522;DHT22;12680;57.804;12.190;2022-12-18T03:39:59;3.50;99.90
24522;DHT22;12680;57.804;12.190;2022-12-18T03:42:28;3.50;99.90
24522;DHT22;12680;57.804;12.190;2022-12-18T03:50:16;3.50;99.90
24522;DHT22;12680;57.804;12.190;2022-12-18T03:52:53;3.60;99.90
24522;DHT22;12680;57.804;12.190;2022-12-18T03:55:23;3.60;99.90
24522;DHT22;12680;57.804;12.190;2022-12-18T03:57:52;3.60;99.90
24522;DHT22;12680;57.804;12.190;2022-12-18T04:00:19;3.60;99.90
24522;DHT22;12680;57.804;12.190;2022-12-18T04:02:48;3.60;99.90
24522;DHT22;12680;57.804;12.190;2022-12-18T04:05:17;3.60;99.90
24522;DHT22;12680;57.804;12.190;2022-12-18T04:07:45;3.60;99.90
24522;DHT22;12680;57.804;12.190;2022-12-18T04:10:13;3.60;99.90
24522;DHT22;12680;57.804;12.190;2022-12-18T04:12:41;3.60;99.90
24522;DHT22;12680;57.804;12.190;2022-12-18T04:15:08;3.70;99.90
24522;DHT22;12680;57.804;12.190;2022-12-18T04:17:36;3.70;99.90
24522;DHT22;12680;57.804;12.190;2022-12-18T04:20:06;3.70;99.90
24522;DHT22;12680;57.804;12.190;2022-12-18T04:22:33;3.70;99.90
24522;DHT22;12680;57.804;12.190;2022-12-18T04:25:01;3.70;99.90
24522;DHT22;12680;57.804;12.190;2022-12-18T04:27:28;3.70;99.90
24522;DHT22;12680;57.804;12.190;2022-12-18T04:29:56;3.80;99.90
24522;DHT22;12680;57.804;12.190;2022-12-18T04:32:23;3.80;99.90
24522;DHT22;12680;57.804;12.190;2022-12-18T04:34:50;3.80;99.90
24522;DHT22;12680;57.804;12.190;2022-12-18T04:37:17;3.80;99.90
24522;DHT22;12680;57.804;12.190;2022-12-18T04:39:44;3.80;99.90
24522;DHT22;12680;57.804;12.190;2022-12-18T04:42:14;3.80;99.90
24522;DHT22;12680;57.804;12.190;2022-12-18T04:44:45;3.80;99.90
24522;DHT22;12680;57.804;12.190;2022-12-18T04:47:12;3.80;99.90
24522;DHT22;12680;57.804;12.190;2022-12-18T04:49:39;3.70;99.90
24522;DHT22;12680;57.804;12.190;2022-12-18T04:52:06;3.80;99.90
24522;DHT22;12680;57.804;12.190;2022-12-18T04:54:36;3.80;99.90
24522;DHT22;12680;57.804;12.190;2022-12-18T04:57:04;3.80;99.90
24522;DHT22;12680;57.804;12.190;2022-12-18T04:59:31;3.80;99.90
24522;DHT22;12680;57.804;12.190;2022-12-18T05:01:58;3.80;99.90
24522;DHT22;12680;57.804;12.190;2022-12-18T05:04:25;3.80;99.90
24522;DHT22;12680;57.804;12.190;2022-12-18T05:06:52;3.80;99.90
24522;DHT22;12680;57.804;12.190;2022-12-18T05:09:20;3.80;99.90
24522;DHT22;12680;57.804;12.190;2022-12-18T05:11:51;3.80;99.90
24522;DHT22;12680;57.804;12.190;2022-12-18T05:14:18;3.80;99.90
24522;DHT22;12680;57.804;12.190;2022-12-18T05:16:45;3.80;99.90
24522;DHT22;12680;57.804;12.190;2022-12-18T05:19:12;3.80;99.90
24522;DHT22;12680;57.804;12.190;2022-12-18T05:21:39;3.80;99.90
24522;DHT22;12680;57.804;12.190;2022-12-18T05:24:06;3.80;99.90
24522;DHT22;12680;57.804;12.190;2022-12-18T05:26:33;3.80;99.90
24522;DHT22;12680;57.804;12.190;2022-12-18T05:29:00;3.80;99.90
24522;DHT22;12680;57.804;12.190;2022-12-18T05:31:28;3.80;99.90
24522;DHT22;12680;57.804;12.190;2022-12-18T05:34:01;3.80;99.90
24522;DHT22;12680;57.804;12.190;2022-12-18T05:36:28;3.80;99.90
24522;DHT22;12680;57.804;12.190;2022-12-18T05:38:56;3.80;99.90
24522;DHT22;12680;57.804;12.190;2022-12-18T05:41:22;3.80;99.90
24522;DHT22;12680;57.804;12.190;2022-12-18T05:43:50;3.80;99.90
24522;DHT22;12680;57.804;12.190;2022-12-18T05:46:17;3.90;99.90
24522;DHT22;12680;57.804;12.190;2022-12-18T05:48:44;3.90;99.90
24522;DHT22;12680;57.804;12.190;2022-12-18T05:51:15;3.90;99.90
24522;DHT22;12680;57.804;12.190;2022-12-18T05:53:43;3.90;99.90
24522;DHT22;12680;57.804;12.190;2022-12-18T05:56:14;3.90;99.90
24522;DHT22;12680;57.804;12.190;2022-12-18T05:58:42;3.90;99.90
24522;DHT22;12680;57.804;12.190;2022-12-18T06:03:39;3.90;99.90
24522;DHT22;12680;57.804;12.190;2022-12-18T06:06:14;3.90;99.90
24522;DHT22;12680;57.804;12.190;2022-12-18T06:08:42;3.90;99.90
24522;DHT22;12680;57.804;12.190;2022-12-18T06:11:12;3.90;99.90
24522;DHT22;12680;57.804;12.190;2022-12-18T06:13:40;3.90;99.90
24522;DHT22;12680;57.804;12.190;2022-12-18T06:16:10;3.90;99.90
24522;DHT22;12680;57.804;12.190;2022-12-18T06:18:37;4.00;99.90
24522;DHT22;12680;57.804;12.190;2022-12-18T06:21:05;3.90;99.90
24522;DHT22;12680;57.804;12.190;2022-12-18T06:23:32;4.00;99.90
24522;DHT22;12680;57.804;12.190;2022-12-18T06:26:02;3.90;99.90
24522;DHT22;12680;57.804;12.190;2022-12-18T06:28:29;3.90;99.90
24522;DHT22;12680;57.804;12.190;2022-12-18T06:30:56;3.90;99.90
24522;DHT22;12680;57.804;12.190;2022-12-18T06:33:25;4.00;99.90
24522;DHT22;12680;57.804;12.190;2022-12-18T06:35:52;3.90;99.90
24522;DHT22;12680;57.804;12.190;2022-12-18T06:38:26;3.90;99.90
24522;DHT22;12680;57.804;12.190;2022-12-18T06:40:53;4.00;99.90
24522;DHT22;12680;57.804;12.190;2022-12-18T06:43:21;3.90;99.90
24522;DHT22;12680;57.804;12.190;2022-12-18T06:45:48;4.00;99.90
24522;DHT22;12680;57.804;12.190;2022-12-18T06:48:19;4.00;99.90
24522;DHT22;12680;57.804;12.190;2022-12-18T06:50:47;4.00;99.90
24522;DHT22;12680;57.804;12.190;2022-12-18T06:53:14;4.00;99.90
24522;DHT22;12680;57.804;12.190;2022-12-18T06:55:45;4.00;99.90
24522;DHT22;12680;57.804;12.190;2022-12-18T06:58:14;4.00;99.90
24522;DHT22;12680;57.804;12.190;2022-12-18T07:00:43;4.00;99.90
24522;DHT22;12680;57.804;12.190;2022-12-18T07:03:11;4.00;99.90
24522;DHT22;12680;57.804;12.190;2022-12-18T07:05:41;4.00;99.90
24522;DHT22;12680;57.804;12.190;2022-12-18T07:08:08;4.00;99.90
24522;DHT22;12680;57.804;12.190;2022-12-18T07:10:42;4.00;99.90
24522;DHT22;12680;57.804;12.190;2022-12-18T07:13:15;4.00;99.90
24522;DHT22;12680;57.804;12.190;2022-12-18T07:15:43;4.00;99.90
24522;DHT22;12680;57.804;12.190;2022-12-18T07:18:10;4.00;99.90
24522;DHT22;12680;57.804;12.190;2022-12-18T07:20:37;4.10;99.90
24522;DHT22;12680;57.804;12.190;2022-12-18T07:23:05;4.10;99.90
24522;DHT22;12680;57.804;12.190;2022-12-18T07:25:35;4.10;99.90
24522;DHT22;12680;57.804;12.190;2022-12-18T07:28:03;4.10;99.90
24522;DHT22;12680;57.804;12.190;2022-12-18T07:30:39;4.10;99.90
24522;DHT22;12680;57.804;12.190;2022-12-18T07:33:07;4.10;99.90
24522;DHT22;12680;57.804;12.190;2022-12-18T07:35:38;4.10;99.90
24522;DHT22;12680;57.804;12.190;2022-12-18T07:38:05;4.10;99.90
24522;DHT22;12680;57.804;12.190;2022-12-18T07:40:32;4.10;99.90
24522;DHT22;12680;57.804;12.190;2022-12-18T07:43:00;4.20;99.90
24522;DHT22;12680;57.804;12.190;2022-12-18T07:45:30;4.20;99.90
24522;DHT22;12680;57.804;12.190;2022-12-18T07:47:57;4.10;99.90
24522;DHT22;12680;57.804;12.190;2022-12-18T07:50:24;4.20;99.90
24522;DHT22;12680;57.804;12.190;2022-12-18T07:52:51;4.20;99.90
24522;DHT22;12680;57.804;12.190;2022-12-18T07:55:18;4.20;99.90
24522;DHT22;12680;57.804;12.190;2022-12-18T07:57:50;4.20;99.90
24522;DHT22;12680;57.804;12.190;2022-12-18T08:00:23;4.20;99.90
24522;DHT22;12680;57.804;12.190;2022-12-18T08:02:51;4.20;99.90
24522;DHT22;12680;57.804;12.190;2022-12-18T08:05:19;4.20;99.90
24522;DHT22;12680;57.804;12.190;2022-12-18T08:07:47;4.20;99.90
24522;DHT22;12680;57.804;12.190;2022-12-18T08:10:15;4.20;99.90
24522;DHT22;12680;57.804;12.190;2022-12-18T08:12:42;4.30;99.90
24522;DHT22;12680;57.804;12.190;2022-12-18T08:15:10;4.30;99.90
24522;DHT22;12680;57.804;12.190;2022-12-18T08:17:40;4.30;99.90
24522;DHT22;12680;57.804;12.190;2022-12-18T08:20:11;4.30;99.90
24522;DHT22;12680;57.804;12.190;2022-12-18T08:22:44;4.30;99.90
24522;DHT22;12680;57.804;12.190;2022-12-18T08:25:11;4.30;99.90
24522;DHT22;12680;57.804;12.190;2022-12-18T08:27:38;4.30;99.90
24522;DHT22;12680;57.804;12.190;2022-12-18T08:30:06;4.30;99.90
24522;DHT22;12680;57.804;12.190;2022-12-18T08:32:33;4.30;99.90
24522;DHT22;12680;57.804;12.190;2022-12-18T08:35:01;4.30;99.90
24522;DHT22;12680;57.804;12.190;2022-12-18T08:37:28;4.40;99.90
24522;DHT22;12680;57.804;12.190;2022-12-18T08:39:56;4.40;99.90
24522;DHT22;12680;57.804;12.190;2022-12-18T08:42:26;4.40;99.90
24522;DHT22;12680;57.804;12.190;2022-12-18T08:45:13;4.40;99.90
24522;DHT22;12680;57.804;12.190;2022-12-18T08:47:41;4.30;99.90
24522;DHT22;12680;57.804;12.190;2022-12-18T08:50:12;4.40;99.90
24522;DHT22;12680;57.804;12.190;2022-12-18T08:52:43;4.40;99.90
24522;DHT22;12680;57.804;12.190;2022-12-18T08:55:10;4.40;99.90
24522;DHT22;12680;57.804;12.190;2022-12-18T08:57:37;4.40;99.90
24522;DHT22;12680;57.804;12.190;2022-12-18T09:00:05;4.40;99.90
24522;DHT22;12680;57.804;12.190;2022-12-18T09:02:33;4.50;99.90
24522;DHT22;12680;57.804;12.190;2022-12-18T09:05:00;4.40;99.90
24522;DHT22;12680;57.804;12.190;2022-12-18T09:07:27;4.50;99.90
24522;DHT22;12680;57.804;12.190;2022-12-18T09:09:55;4.50;99.90
24522;DHT22;12680;57.804;12.190;2022-12-18T09:12:22;4.50;99.90
24522;DHT22;12680;57.804;12.190;2022-12-18T09:14:50;4.50;99.90
24522;DHT22;12680;57.804;12.190;2022-12-18T09:17:19;4.50;99.90
24522;DHT22;12680;57.804;12.190;2022-12-18T09:19:47;4.50;99.90
24522;DHT22;12680;57.804;12.190;2022-12-18T09:22:14;4.50;99.90
24522;DHT22;12680;57.804;12.190;2022-12-18T09:24:45;4.50;99.90
24522;DHT22;12680;57.804;12.190;2022-12-18T09:27:12;4.60;99.90
24522;DHT22;12680;57.804;12.190;2022-12-18T09:29:44;4.60;99.90
24522;DHT22;12680;57.804;12.190;2022-12-18T09:32:14;4.60;99.90
24522;DHT22;12680;57.804;12.190;2022-12-18T09:34:47;4.70;99.90
24522;DHT22;12680;57.804;12.190;2022-12-18T09:37:15;4.70;99.90
24522;DHT22;12680;57.804;12.190;2022-12-18T09:39:42;4.70;99.90
24522;DHT22;12680;57.804;12.190;2022-12-18T09:42:16;4.70;99.90
24522;DHT22;12680;57.804;12.190;2022-12-18T09:44:50;4.80;99.90
24522;DHT22;12680;57.804;12.190;2022-12-18T09:47:25;4.80;99.90
24522;DHT22;12680;57.804;12.190;2022-12-18T09:49:56;4.80;99.90
24522;DHT22;12680;57.804;12.190;2022-12-18T09:52:35;4.80;99.90
24522;DHT22;12680;57.804;12.190;2022-12-18T10:00:34;4.80;99.90
24522;DHT22;12680;57.804;12.190;2022-12-18T10:03:11;4.80;99.90
24522;DHT22;12680;57.804;12.190;2022-12-18T10:10:53;5.00;99.90
24522;DHT22;12680;57.804;12.190;2022-12-18T10:16:02;4.90;99.90
24522;DHT22;12680;57.804;12.190;2022-12-18T10:19:18;4.90;99.90
24522;DHT22;12680;57.804;12.190;2022-12-18T10:21:19;5.00;99.90
24522;DHT22;12680;57.804;12.190;2022-12-18T10:26:17;5.00;99.90
24522;DHT22;12680;57.804;12.190;2022-12-18T10:28:46;5.00;99.90
24522;DHT22;12680;57.804;12.190;2022-12-18T10:31:19;5.10;99.90
24522;DHT22;12680;57.804;12.190;2022-12-18T10:33:50;5.20;99.90
24522;DHT22;12680;57.804;12.190;2022-12-18T10:36:17;5.20;99.90
24522;DHT22;12680;57.804;12.190;2022-12-18T10:38:44;5.20;99.90
24522;DHT22;12680;57.804;12.190;2022-12-18T10:43:47;5.10;99.90
24522;DHT22;12680;57.804;12.190;2022-12-18T10:46:19;5.20;99.90
24522;DHT22;12680;57.804;12.190;2022-12-18T10:51:20;5.20;99.90
24522;DHT22;12680;57.804;12.190;2022-12-18T10:53:52;5.20;99.90
24522;DHT22;12680;57.804;12.190;2022-12-18T10:56:20;5.30;99.90
24522;DHT22;12680;57.804;12.190;2022-12-18T10:58:55;5.30;99.90
24522;DHT22;12680;57.804;12.190;2022-12-18T11:01:22;5.30;99.90
24522;DHT22;12680;57.804;12.190;2022-12-18T11:06:17;5.20;99.90
24522;DHT22;12680;57.804;12.190;2022-12-18T11:09:18;5.20;99.90
24522;DHT22;12680;57.804;12.190;2022-12-18T11:11:40;5.20;99.90
24522;DHT22;12680;57.804;12.190;2022-12-18T11:14:29;5.10;99.90
24522;DHT22;12680;57.804;12.190;2022-12-18T11:16:58;5.10;99.90
24522;DHT22;12680;57.804;12.190;2022-12-18T11:19:45;5.10;99.90
24522;DHT22;12680;57.804;12.190;2022-12-18T11:22:25;5.10;99.90
24522;DHT22;12680;57.804;12.190;2022-12-18T11:25:01;5.10;99.90
24522;DHT22;12680;57.804;12.190;2022-12-18T11:27:49;5.10;99.90
24522;DHT22;12680;57.804;12.190;2022-12-18T11:30:22;5.10;99.90
24522;DHT22;12680;57.804;12.190;2022-12-18T11:32:51;5.00;99.90
24522;DHT22;12680;57.804;12.190;2022-12-18T11:38:32;4.90;99.90
24522;DHT22;12680;57.804;12.190;2022-12-18T11:40:43;4.90;99.90
24522;DHT22;12680;57.804;12.190;2022-12-18T11:50:50;5.00;99.90
24522;DHT22;12680;57.804;12.190;2022-12-18T11:53:18;5.00;99.90
24522;DHT22;12680;57.804;12.190;2022-12-18T11:59:15;5.00;99.90
24522;DHT22;12680;57.804;12.190;2022-12-18T12:07:02;5.00;99.90
24522;DHT22;12680;57.804;12.190;2022-12-18T12:24:59;5.00;99.90
24522;DHT22;12680;57.804;12.190;2022-12-18T12:27:33;5.00;99.90
24522;DHT22;12680;57.804;12.190;2022-12-18T12:30:08;5.00;99.90
24522;DHT22;12680;57.804;12.190;2022-12-18T12:32:49;5.00;99.90
24522;DHT22;12680;57.804;12.190;2022-12-18T12:38:02;5.10;99.90
24522;DHT22;12680;57.804;12.190;2022-12-18T12:40:33;5.10;99.90
24522;DHT22;12680;57.804;12.190;2022-12-18T12:51:16;5.10;99.90
24522;DHT22;12680;57.804;12.190;2022-12-18T12:53:46;5.00;99.90
24522;DHT22;12680;57.804;12.190;2022-12-18T12:56:15;5.00;99.90
24522;DHT22;12680;57.804;12.190;2022-12-18T12:59:02;5.00;99.90
24522;DHT22;12680;57.804;12.190;2022-12-18T13:01:41;5.00;99.90
24522;DHT22;12680;57.804;12.190;2022-12-18T13:04:30;4.90;99.90
24522;DHT22;12680;57.804;12.190;2022-12-18T13:09:32;4.80;99.90
24522;DHT22;12680;57.804;12.190;2022-12-18T13:12:03;4.80;99.90
24522;DHT22;12680;57.804;12.190;2022-12-18T13:14:49;4.80;99.90
24522;DHT22;12680;57.804;12.190;2022-12-18T13:19:51;4.80;99.90
24522;DHT22;12680;57.804;12.190;2022-12-18T13:22:21;4.90;99.90
24522;DHT22;12680;57.804;12.190;2022-12-18T13:24:49;4.90;99.90
24522;DHT22;12680;57.804;12.190;2022-12-18T13:30:11;4.90;99.90
24522;DHT22;12680;57.804;12.190;2022-12-18T13:33:03;4.90;99.90
24522;DHT22;12680;57.804;12.190;2022-12-18T13:35:38;5.00;99.90
24522;DHT22;12680;57.804;12.190;2022-12-18T13:48:22;5.00;99.90
24522;DHT22;12680;57.804;12.190;2022-12-18T13:50:57;5.00;99.90
24522;DHT22;12680;57.804;12.190;2022-12-18T13:54:00;5.00;99.90
24522;DHT22;12680;57.804;12.190;2022-12-18T13:56:22;4.90;99.90
24522;DHT22;12680;57.804;12.190;2022-12-18T13:59:05;4.90;99.90
24522;DHT22;12680;57.804;12.190;2022-12-18T14:01:34;4.80;99.90
24522;DHT22;12680;57.804;12.190;2022-12-18T14:04:16;4.80;99.90
24522;DHT22;12680;57.804;12.190;2022-12-18T14:06:52;4.80;99.90
24522;DHT22;12680;57.804;12.190;2022-12-18T14:09:24;4.80;99.90
24522;DHT22;12680;57.804;12.190;2022-12-18T14:11:58;4.80;99.90
24522;DHT22;12680;57.804;12.190;2022-12-18T14:14:59;4.70;99.90
24522;DHT22;12680;57.804;12.190;2022-12-18T14:17:30;4.70;99.90
24522;DHT22;12680;57.804;12.190;2022-12-18T14:20:02;4.60;99.90
24522;DHT22;12680;57.804;12.190;2022-12-18T14:22:29;4.60;99.90
24522;DHT22;12680;57.804;12.190;2022-12-18T14:28:08;4.50;99.90
24522;DHT22;12680;57.804;12.190;2022-12-18T14:30:42;4.40;99.90
24522;DHT22;12680;57.804;12.190;2022-12-18T14:33:14;4.40;99.90
24522;DHT22;12680;57.804;12.190;2022-12-18T14:35:51;4.40;99.90
24522;DHT22;12680;57.804;12.190;2022-12-18T14:38:33;4.40;99.90
24522;DHT22;12680;57.804;12.190;2022-12-18T14:41:04;4.40;99.90
24522;DHT22;12680;57.804;12.190;2022-12-18T14:43:32;4.40;99.90
24522;DHT22;12680;57.804;12.190;2022-12-18T14:46:05;4.50;99.90
24522;DHT22;12680;57.804;12.190;2022-12-18T14:48:34;4.60;99.90
24522;DHT22;12680;57.804;12.190;2022-12-18T14:51:03;4.60;99.90
24522;DHT22;12680;57.804;12.190;2022-12-18T14:56:04;4.70;99.90
24522;DHT22;12680;57.804;12.190;2022-12-18T14:58:37;4.70;99.90
24522;DHT22;12680;57.804;12.190;2022-12-18T15:01:04;4.70;99.90
24522;DHT22;12680;57.804;12.190;2022-12-18T15:03:31;4.80;99.90
24522;DHT22;12680;57.804;12.190;2022-12-18T15:06:14;4.70;99.90
24522;DHT22;12680;57.804;12.190;2022-12-18T15:08:42;4.80;99.90
24522;DHT22;12680;57.804;12.190;2022-12-18T15:14:24;4.80;99.90
24522;DHT22;12680;57.804;12.190;2022-12-18T15:16:54;4.80;99.90
24522;DHT22;12680;57.804;12.190;2022-12-18T15:19:22;4.80;99.90
24522;DHT22;12680;57.804;12.190;2022-12-18T15:21:51;4.80;99.90
24522;DHT22;12680;57.804;12.190;2022-12-18T15:24:18;4.80;99.90
24522;DHT22;12680;57.804;12.190;2022-12-18T15:26:47;4.80;99.90
24522;DHT22;12680;57.804;12.190;2022-12-18T15:29:16;4.80;99.90
24522;DHT22;12680;57.804;12.190;2022-12-18T15:31:45;4.80;99.90
24522;DHT22;12680;57.804;12.190;2022-12-18T15:34:24;4.80;99.90
24522;DHT22;12680;57.804;12.190;2022-12-18T15:36:53;4.80;99.90
24522;DHT22;12680;57.804;12.190;2022-12-18T15:39:20;4.70;99.90
24522;DHT22;12680;57.804;12.190;2022-12-18T15:41:47;4.80;99.90
24522;DHT22;12680;57.804;12.190;2022-12-18T15:44:32;4.80;99.90
24522;DHT22;12680;57.804;12.190;2022-12-18T15:47:00;4.70;99.90
24522;DHT22;12680;57.804;12.190;2022-12-18T15:49:27;4.70;99.90
24522;DHT22;12680;57.804;12.190;2022-12-18T15:51:58;4.70;99.90
24522;DHT22;12680;57.804;12.190;2022-12-18T15:54:28;4.70;99.90
24522;DHT22;12680;57.804;12.190;2022-12-18T15:57:14;4.70;99.90
24522;DHT22;12680;57.804;12.190;2022-12-18T15:59:51;4.70;99.90
24522;DHT22;12680;57.804;12.190;2022-12-18T16:02:20;4.70;99.90
24522;DHT22;12680;57.804;12.190;2022-12-18T16:04:50;4.70;99.90
24522;DHT22;12680;57.804;12.190;2022-12-18T16:07:18;4.70;99.90
24522;DHT22;12680;57.804;12.190;2022-12-18T16:09:52;4.70;99.90
24522;DHT22;12680;57.804;12.190;2022-12-18T16:12:20;4.70;99.90
24522;DHT22;12680;57.804;12.190;2022-12-18T16:14:48;4.80;99.90
24522;DHT22;12680;57.804;12.190;2022-12-18T16:17:15;4.80;99.90
24522;DHT22;12680;57.804;12.190;2022-12-18T16:19:42;4.80;99.90
24522;DHT22;12680;57.804;12.190;2022-12-18T16:24:47;4.80;99.90
24522;DHT22;12680;57.804;12.190;2022-12-18T16:27:14;4.70;99.90
24522;DHT22;12680;57.804;12.190;2022-12-18T16:29:41;4.70;99.90
24522;DHT22;12680;57.804;12.190;2022-12-18T16:32:08;4.70;99.90
24522;DHT22;12680;57.804;12.190;2022-12-18T16:34:39;4.70;99.90
24522;DHT22;12680;57.804;12.190;2022-12-18T16:37:07;4.60;99.90
24522;DHT22;12680;57.804;12.190;2022-12-18T16:39:35;4.60;99.90
24522;DHT22;12680;57.804;12.190;2022-12-18T16:42:06;4.60;99.90
24522;DHT22;12680;57.804;12.190;2022-12-18T16:44:37;4.60;99.90
24522;DHT22;12680;57.804;12.190;2022-12-18T16:47:04;4.60;99.90
24522;DHT22;12680;57.804;12.190;2022-12-18T16:49:33;4.60;99.90
24522;DHT22;12680;57.804;12.190;2022-12-18T16:52:00;4.70;99.90
24522;DHT22;12680;57.804;12.190;2022-12-18T16:54:27;4.70;99.90
24522;DHT22;12680;57.804;12.190;2022-12-18T16:56:56;4.60;99.90
24522;DHT22;12680;57.804;12.190;2022-12-18T16:59:23;4.60;99.90
24522;DHT22;12680;57.804;12.190;2022-12-18T17:01:52;4.60;99.90
24522;DHT22;12680;57.804;12.190;2022-12-18T17:04:19;4.60;99.90
24522;DHT22;12680;57.804;12.190;2022-12-18T17:06:46;4.60;99.90
24522;DHT22;12680;57.804;12.190;2022-12-18T17:09:18;4.50;99.90
24522;DHT22;12680;57.804;12.190;2022-12-18T17:11:52;4.60;99.90
24522;DHT22;12680;57.804;12.190;2022-12-18T17:14:20;4.60;99.90
24522;DHT22;12680;57.804;12.190;2022-12-18T17:16:47;4.50;99.90
24522;DHT22;12680;57.804;12.190;2022-12-18T17:19:35;4.50;99.90
24522;DHT22;12680;57.804;12.190;2022-12-18T17:22:02;4.50;99.90
24522;DHT22;12680;57.804;12.190;2022-12-18T17:24:30;4.50;99.90
24522;DHT22;12680;57.804;12.190;2022-12-18T17:27:01;4.50;99.90
24522;DHT22;12680;57.804;12.190;2022-12-18T17:29:28;4.50;99.90
24522;DHT22;12680;57.804;12.190;2022-12-18T17:31:56;6.30;99.90
24522;DHT22;12680;57.804;12.190;2022-12-18T17:34:26;4.50;99.90
24522;DHT22;12680;57.804;12.190;2022-12-18T17:36:58;4.50;99.90
24522;DHT22;12680;57.804;12.190;2022-12-18T17:39:26;4.50;99.90
24522;DHT22;12680;57.804;12.190;2022-12-18T17:41:54;4.50;99.90
24522;DHT22;12680;57.804;12.190;2022-12-18T17:44:22;4.50;99.90
24522;DHT22;12680;57.804;12.190;2022-12-18T17:46:50;4.50;99.90
24522;DHT22;12680;57.804;12.190;2022-12-18T17:49:17;4.60;99.90
24522;DHT22;12680;57.804;12.190;2022-12-18T17:51:44;4.60;99.90